sensor_id;sensor_type;location;lat;lon;timestamp;P1;durP1;ratioP1;P2;durP2;ratioP2
36745;SDS011;22715;52.182;21.206;2022-10-17T00:00:15;18.08;;;14.18;;
36745;SDS011;22715;52.182;21.206;2022-10-17T00:02:41;22.27;;;14.48;;
36745;SDS011;22715;52.182;21.206;2022-10-17T00:05:06;26.80;;;15.07;;
36745;SDS011;22715;52.182;21.206;2022-10-17T00:07:31;15.20;;;11.38;;
36745;SDS011;22715;52.182;21.206;2022-10-17T00:09:57;16.73;;;11.40;;
36745;SDS011;22715;52.182;21.206;2022-10-17T00:12:22;15.80;;;11.85;;
36745;SDS011;22715;52.182;21.206;2022-10-17T00:14:47;20.42;;;12.90;;
36745;SDS011;22715;52.182;21.206;2022-10-17T00:17:12;16.73;;;12.13;;
36745;SDS011;22715;52.182;21.206;2022-10-17T00:19:39;19.80;;;13.13;;
36745;SDS011;22715;52.182;21.206;2022-10-17T00:22:04;17.70;;;12.13;;
36745;SDS011;22715;52.182;21.206;2022-10-17T00:24:30;20.95;;;13.80;;
36745;SDS011;22715;52.182;21.206;2022-10-17T00:26:55;16.23;;;12.23;;
36745;SDS011;22715;52.182;21.206;2022-10-17T00:29:21;17.25;;;12.60;;
36745;SDS011;22715;52.182;21.206;2022-10-17T00:31:46;16.70;;;12.70;;
36745;SDS011;22715;52.182;21.206;2022-10-17T00:34:29;18.52;;;12.23;;
36745;SDS011;22715;52.182;21.206;2022-10-17T00:36:57;23.33;;;13.10;;
36745;SDS011;22715;52.182;21.206;2022-10-17T00:39:28;17.42;;;11.88;;
36745;SDS011;22715;52.182;21.206;2022-10-17T00:41:53;16.67;;;12.88;;
36745;SDS011;22715;52.182;21.206;2022-10-17T00:46:53;18.30;;;12.52;;
36745;SDS011;22715;52.182;21.206;2022-10-17T00:49:18;22.58;;;14.82;;
36745;SDS011;22715;52.182;21.206;2022-10-17T00:51:54;17.67;;;12.70;;
36745;SDS011;22715;52.182;21.206;2022-10-17T00:54:22;20.85;;;14.30;;
36745;SDS011;22715;52.182;21.206;2022-10-17T00:56:48;15.88;;;13.25;;
36745;SDS011;22715;52.182;21.206;2022-10-17T00:59:14;17.48;;;13.65;;
36745;SDS011;22715;52.182;21.206;2022-10-17T01:01:40;21.92;;;13.85;;
36745;SDS011;22715;52.182;21.206;2022-10-17T01:04:07;16.85;;;12.90;;
36745;SDS011;22715;52.182;21.206;2022-10-17T01:06:33;20.95;;;13.60;;
36745;SDS011;22715;52.182;21.206;2022-10-17T01:08:58;25.77;;;13.75;;
36745;SDS011;22715;52.182;21.206;2022-10-17T01:14:08;20.15;;;14.73;;
36745;SDS011;22715;52.182;21.206;2022-10-17T01:26:38;19.25;;;13.40;;
36745;SDS011;22715;52.182;21.206;2022-10-17T01:31:39;18.77;;;13.98;;
36745;SDS011;22715;52.182;21.206;2022-10-17T01:37:01;19.13;;;15.20;;
36745;SDS011;22715;52.182;21.206;2022-10-17T01:39:35;17.08;;;13.75;;
36745;SDS011;22715;52.182;21.206;2022-10-17T01:44:31;19.58;;;14.60;;
36745;SDS011;22715;52.182;21.206;2022-10-17T01:47:00;23.67;;;14.70;;
36745;SDS011;22715;52.182;21.206;2022-10-17T01:49:27;22.23;;;14.57;;
36745;SDS011;22715;52.182;21.206;2022-10-17T01:51:59;25.38;;;16.90;;
36745;SDS011;22715;52.182;21.206;2022-10-17T01:54:35;23.40;;;16.50;;
36745;SDS011;22715;52.182;21.206;2022-10-17T01:57:03;17.90;;;13.77;;
36745;SDS011;22715;52.182;21.206;2022-10-17T01:59:48;22.35;;;14.55;;
36745;SDS011;22715;52.182;21.206;2022-10-17T02:02:15;20.55;;;14.00;;
36745;SDS011;22715;52.182;21.206;2022-10-17T02:04:41;24.17;;;14.20;;
36745;SDS011;22715;52.182;21.206;2022-10-17T02:07:07;25.23;;;16.60;;
36745;SDS011;22715;52.182;21.206;2022-10-17T02:09:33;25.17;;;16.95;;
36745;SDS011;22715;52.182;21.206;2022-10-17T02:12:12;23.67;;;16.38;;
36745;SDS011;22715;52.182;21.206;2022-10-17T02:14:43;22.42;;;16.48;;
36745;SDS011;22715;52.182;21.206;2022-10-17T02:22:40;22.45;;;16.67;;
36745;SDS011;22715;52.182;21.206;2022-10-17T02:30:22;22.50;;;15.15;;
36745;SDS011;22715;52.182;21.206;2022-10-17T02:32:54;24.10;;;15.93;;
36745;SDS011;22715;52.182;21.206;2022-10-17T02:35:21;24.90;;;14.40;;
36745;SDS011;22715;52.182;21.206;2022-10-17T02:37:50;22.58;;;15.88;;
36745;SDS011;22715;52.182;21.206;2022-10-17T02:40:17;21.38;;;16.15;;
36745;SDS011;22715;52.182;21.206;2022-10-17T02:42:44;23.50;;;15.23;;
36745;SDS011;22715;52.182;21.206;2022-10-17T02:45:10;25.23;;;16.40;;
36745;SDS011;22715;52.182;21.206;2022-10-17T02:47:50;23.40;;;17.00;;
36745;SDS011;22715;52.182;21.206;2022-10-17T02:50:18;25.90;;;15.75;;
36745;SDS011;22715;52.182;21.206;2022-10-17T02:52:51;22.67;;;15.90;;
36745;SDS011;22715;52.182;21.206;2022-10-17T02:55:41;25.60;;;15.82;;
36745;SDS011;22715;52.182;21.206;2022-10-17T02:58:10;23.60;;;15.30;;
36745;SDS011;22715;52.182;21.206;2022-10-17T03:00:37;26.67;;;15.38;;
36745;SDS011;22715;52.182;21.206;2022-10-17T03:03:15;25.40;;;17.05;;
36745;SDS011;22715;52.182;21.206;2022-10-17T03:05:42;21.67;;;15.35;;
36745;SDS011;22715;52.182;21.206;2022-10-17T03:08:07;21.02;;;15.27;;
36745;SDS011;22715;52.182;21.206;2022-10-17T03:10:32;24.50;;;17.30;;
36745;SDS011;22715;52.182;21.206;2022-10-17T03:12:58;28.42;;;16.90;;
36745;SDS011;22715;52.182;21.206;2022-10-17T03:15:23;28.08;;;16.80;;
36745;SDS011;22715;52.182;21.206;2022-10-17T03:17:48;23.40;;;16.88;;
36745;SDS011;22715;52.182;21.206;2022-10-17T03:20:14;29.63;;;17.70;;
36745;SDS011;22715;52.182;21.206;2022-10-17T03:22:39;24.95;;;18.30;;
36745;SDS011;22715;52.182;21.206;2022-10-17T03:25:07;27.30;;;19.90;;
36745;SDS011;22715;52.182;21.206;2022-10-17T03:27:32;22.55;;;16.65;;
36745;SDS011;22715;52.182;21.206;2022-10-17T03:29:58;25.90;;;17.80;;
36745;SDS011;22715;52.182;21.206;2022-10-17T03:32:23;23.90;;;17.65;;
36745;SDS011;22715;52.182;21.206;2022-10-17T03:34:49;26.95;;;19.05;;
36745;SDS011;22715;52.182;21.206;2022-10-17T03:37:14;25.23;;;16.73;;
36745;SDS011;22715;52.182;21.206;2022-10-17T03:39:39;26.90;;;18.25;;
36745;SDS011;22715;52.182;21.206;2022-10-17T03:42:05;28.17;;;20.00;;
36745;SDS011;22715;52.182;21.206;2022-10-17T03:44:30;22.80;;;15.73;;
36745;SDS011;22715;52.182;21.206;2022-10-17T03:46:56;32.15;;;20.50;;
36745;SDS011;22715;52.182;21.206;2022-10-17T03:49:21;25.13;;;18.65;;
36745;SDS011;22715;52.182;21.206;2022-10-17T03:51:46;24.80;;;19.48;;
36745;SDS011;22715;52.182;21.206;2022-10-17T03:54:12;27.10;;;18.35;;
36745;SDS011;22715;52.182;21.206;2022-10-17T03:56:37;28.80;;;20.88;;
36745;SDS011;22715;52.182;21.206;2022-10-17T03:59:03;26.08;;;18.65;;
36745;SDS011;22715;52.182;21.206;2022-10-17T04:01:28;33.13;;;19.30;;
36745;SDS011;22715;52.182;21.206;2022-10-17T04:03:54;30.17;;;19.80;;
36745;SDS011;22715;52.182;21.206;2022-10-17T04:06:20;27.85;;;19.58;;
36745;SDS011;22715;52.182;21.206;2022-10-17T04:08:46;35.42;;;21.55;;
36745;SDS011;22715;52.182;21.206;2022-10-17T04:11:15;27.42;;;19.85;;
36745;SDS011;22715;52.182;21.206;2022-10-17T04:13:41;26.20;;;20.07;;
36745;SDS011;22715;52.182;21.206;2022-10-17T04:16:07;25.80;;;18.52;;
36745;SDS011;22715;52.182;21.206;2022-10-17T04:18:33;29.00;;;18.52;;
36745;SDS011;22715;52.182;21.206;2022-10-17T04:21:02;30.98;;;20.17;;
36745;SDS011;22715;52.182;21.206;2022-10-17T04:23:27;28.38;;;19.85;;
36745;SDS011;22715;52.182;21.206;2022-10-17T04:25:59;30.73;;;19.58;;
36745;SDS011;22715;52.182;21.206;2022-10-17T04:28:25;29.63;;;19.77;;
36745;SDS011;22715;52.182;21.206;2022-10-17T04:30:57;26.52;;;19.73;;
36745;SDS011;22715;52.182;21.206;2022-10-17T04:33:24;24.38;;;18.45;;
36745;SDS011;22715;52.182;21.206;2022-10-17T04:35:56;25.65;;;19.02;;
36745;SDS011;22715;52.182;21.206;2022-10-17T04:38:22;32.30;;;19.25;;
36745;SDS011;22715;52.182;21.206;2022-10-17T04:40:47;26.13;;;18.08;;
36745;SDS011;22715;52.182;21.206;2022-10-17T04:43:13;28.35;;;18.70;;
36745;SDS011;22715;52.182;21.206;2022-10-17T04:45:38;26.50;;;19.80;;
36745;SDS011;22715;52.182;21.206;2022-10-17T04:48:03;34.22;;;21.38;;
36745;SDS011;22715;52.182;21.206;2022-10-17T04:50:29;29.35;;;19.40;;
36745;SDS011;22715;52.182;21.206;2022-10-17T04:52:57;29.38;;;20.55;;
36745;SDS011;22715;52.182;21.206;2022-10-17T04:55:23;36.72;;;22.10;;
36745;SDS011;22715;52.182;21.206;2022-10-17T04:57:48;31.75;;;20.77;;
36745;SDS011;22715;52.182;21.206;2022-10-17T05:00:14;30.13;;;21.65;;
36745;SDS011;22715;52.182;21.206;2022-10-17T05:02:39;28.05;;;21.92;;
36745;SDS011;22715;52.182;21.206;2022-10-17T05:05:04;27.73;;;20.58;;
36745;SDS011;22715;52.182;21.206;2022-10-17T05:07:30;29.38;;;20.70;;
36745;SDS011;22715;52.182;21.206;2022-10-17T05:09:55;27.60;;;20.38;;
36745;SDS011;22715;52.182;21.206;2022-10-17T05:12:22;30.65;;;22.10;;
36745;SDS011;22715;52.182;21.206;2022-10-17T05:14:48;32.45;;;22.80;;
36745;SDS011;22715;52.182;21.206;2022-10-17T05:17:13;43.88;;;29.05;;
36745;SDS011;22715;52.182;21.206;2022-10-17T05:19:38;116.22;;;79.28;;
36745;SDS011;22715;52.182;21.206;2022-10-17T05:22:03;72.28;;;51.60;;
36745;SDS011;22715;52.182;21.206;2022-10-17T05:24:29;60.85;;;40.65;;
36745;SDS011;22715;52.182;21.206;2022-10-17T05:26:54;53.80;;;38.25;;
36745;SDS011;22715;52.182;21.206;2022-10-17T05:29:20;55.72;;;42.35;;
36745;SDS011;22715;52.182;21.206;2022-10-17T05:31:45;51.22;;;38.92;;
36745;SDS011;22715;52.182;21.206;2022-10-17T05:34:10;59.42;;;38.75;;
36745;SDS011;22715;52.182;21.206;2022-10-17T05:36:36;50.88;;;36.05;;
36745;SDS011;22715;52.182;21.206;2022-10-17T05:39:01;43.30;;;31.85;;
36745;SDS011;22715;52.182;21.206;2022-10-17T05:41:27;46.17;;;28.83;;
36745;SDS011;22715;52.182;21.206;2022-10-17T05:43:53;40.22;;;28.35;;
36745;SDS011;22715;52.182;21.206;2022-10-17T05:46:18;40.08;;;28.25;;
36745;SDS011;22715;52.182;21.206;2022-10-17T05:48:44;40.83;;;27.98;;
36745;SDS011;22715;52.182;21.206;2022-10-17T05:51:09;40.40;;;29.13;;
36745;SDS011;22715;52.182;21.206;2022-10-17T05:53:39;37.47;;;26.98;;
36745;SDS011;22715;52.182;21.206;2022-10-17T05:56:06;42.55;;;30.23;;
36745;SDS011;22715;52.182;21.206;2022-10-17T05:58:32;41.35;;;29.73;;
36745;SDS011;22715;52.182;21.206;2022-10-17T06:00:59;39.30;;;27.13;;
36745;SDS011;22715;52.182;21.206;2022-10-17T06:03:40;37.78;;;28.52;;
36745;SDS011;22715;52.182;21.206;2022-10-17T06:06:11;41.35;;;29.10;;
36745;SDS011;22715;52.182;21.206;2022-10-17T06:08:36;44.53;;;28.60;;
36745;SDS011;22715;52.182;21.206;2022-10-17T06:11:02;42.97;;;29.90;;
36745;SDS011;22715;52.182;21.206;2022-10-17T06:13:27;35.72;;;26.95;;
36745;SDS011;22715;52.182;21.206;2022-10-17T06:15:53;41.90;;;27.60;;
36745;SDS011;22715;52.182;21.206;2022-10-17T06:18:18;38.53;;;27.20;;
36745;SDS011;22715;52.182;21.206;2022-10-17T06:20:43;39.10;;;27.73;;
36745;SDS011;22715;52.182;21.206;2022-10-17T06:23:09;37.00;;;27.77;;
36745;SDS011;22715;52.182;21.206;2022-10-17T06:25:34;41.95;;;30.17;;
36745;SDS011;22715;52.182;21.206;2022-10-17T06:27:59;45.55;;;30.60;;
36745;SDS011;22715;52.182;21.206;2022-10-17T06:30:25;43.70;;;32.05;;
36745;SDS011;22715;52.182;21.206;2022-10-17T06:32:51;37.35;;;27.63;;
36745;SDS011;22715;52.182;21.206;2022-10-17T06:35:17;40.70;;;28.27;;
36745;SDS011;22715;52.182;21.206;2022-10-17T06:37:44;38.63;;;27.35;;
36745;SDS011;22715;52.182;21.206;2022-10-17T06:40:10;40.83;;;26.65;;
36745;SDS011;22715;52.182;21.206;2022-10-17T06:42:36;40.03;;;29.23;;
36745;SDS011;22715;52.182;21.206;2022-10-17T06:45:01;45.60;;;29.00;;
36745;SDS011;22715;52.182;21.206;2022-10-17T06:47:27;40.10;;;26.00;;
36745;SDS011;22715;52.182;21.206;2022-10-17T06:49:52;42.72;;;27.65;;
36745;SDS011;22715;52.182;21.206;2022-10-17T06:52:18;34.88;;;24.70;;
36745;SDS011;22715;52.182;21.206;2022-10-17T06:54:43;36.70;;;27.25;;
36745;SDS011;22715;52.182;21.206;2022-10-17T06:57:09;34.70;;;24.95;;
36745;SDS011;22715;52.182;21.206;2022-10-17T06:59:34;36.78;;;25.48;;
36745;SDS011;22715;52.182;21.206;2022-10-17T07:02:00;31.67;;;22.98;;
36745;SDS011;22715;52.182;21.206;2022-10-17T07:04:25;37.83;;;22.88;;
36745;SDS011;22715;52.182;21.206;2022-10-17T07:06:54;29.55;;;21.85;;
36745;SDS011;22715;52.182;21.206;2022-10-17T07:09:19;33.40;;;23.52;;
36745;SDS011;22715;52.182;21.206;2022-10-17T07:11:45;31.02;;;22.73;;
36745;SDS011;22715;52.182;21.206;2022-10-17T07:14:10;29.88;;;21.65;;
36745;SDS011;22715;52.182;21.206;2022-10-17T07:16:35;33.03;;;22.40;;
36745;SDS011;22715;52.182;21.206;2022-10-17T07:19:01;28.42;;;21.33;;
36745;SDS011;22715;52.182;21.206;2022-10-17T07:21:26;33.50;;;21.42;;
36745;SDS011;22715;52.182;21.206;2022-10-17T07:23:52;27.13;;;20.10;;
36745;SDS011;22715;52.182;21.206;2022-10-17T07:26:26;30.45;;;20.08;;
36745;SDS011;22715;52.182;21.206;2022-10-17T07:29:00;24.75;;;20.35;;
36745;SDS011;22715;52.182;21.206;2022-10-17T07:31:26;25.10;;;19.45;;
36745;SDS011;22715;52.182;21.206;2022-10-17T07:33:51;28.55;;;19.80;;
36745;SDS011;22715;52.182;21.206;2022-10-17T07:36:16;21.30;;;18.27;;
36745;SDS011;22715;52.182;21.206;2022-10-17T07:38:42;25.38;;;17.77;;
36745;SDS011;22715;52.182;21.206;2022-10-17T07:41:08;29.50;;;19.85;;
36745;SDS011;22715;52.182;21.206;2022-10-17T07:43:33;25.05;;;17.83;;
36745;SDS011;22715;52.182;21.206;2022-10-17T07:46:00;25.80;;;16.35;;
36745;SDS011;22715;52.182;21.206;2022-10-17T07:48:26;24.35;;;19.25;;
36745;SDS011;22715;52.182;21.206;2022-10-17T07:50:51;23.02;;;16.13;;
36745;SDS011;22715;52.182;21.206;2022-10-17T07:53:17;25.95;;;17.48;;
36745;SDS011;22715;52.182;21.206;2022-10-17T07:55:43;39.97;;;18.67;;
36745;SDS011;22715;52.182;21.206;2022-10-17T07:58:10;23.55;;;17.23;;
36745;SDS011;22715;52.182;21.206;2022-10-17T08:00:35;22.55;;;16.08;;
36745;SDS011;22715;52.182;21.206;2022-10-17T08:03:01;26.85;;;17.73;;
36745;SDS011;22715;52.182;21.206;2022-10-17T08:05:27;18.13;;;14.35;;
36745;SDS011;22715;52.182;21.206;2022-10-17T08:07:53;23.65;;;15.43;;
36745;SDS011;22715;52.182;21.206;2022-10-17T08:10:26;33.08;;;16.30;;
36745;SDS011;22715;52.182;21.206;2022-10-17T08:12:54;24.73;;;18.08;;
36745;SDS011;22715;52.182;21.206;2022-10-17T08:15:19;20.25;;;14.50;;
36745;SDS011;22715;52.182;21.206;2022-10-17T08:17:45;20.80;;;15.73;;
36745;SDS011;22715;52.182;21.206;2022-10-17T08:20:14;17.98;;;14.95;;
36745;SDS011;22715;52.182;21.206;2022-10-17T08:22:46;18.52;;;14.73;;
36745;SDS011;22715;52.182;21.206;2022-10-17T08:25:18;19.83;;;13.32;;
36745;SDS011;22715;52.182;21.206;2022-10-17T08:27:43;18.58;;;14.05;;
36745;SDS011;22715;52.182;21.206;2022-10-17T08:30:08;18.73;;;14.20;;
36745;SDS011;22715;52.182;21.206;2022-10-17T08:32:34;22.20;;;15.98;;
36745;SDS011;22715;52.182;21.206;2022-10-17T08:35:02;18.83;;;14.40;;
36745;SDS011;22715;52.182;21.206;2022-10-17T08:37:30;21.98;;;14.48;;
36745;SDS011;22715;52.182;21.206;2022-10-17T08:39:58;18.75;;;14.45;;
36745;SDS011;22715;52.182;21.206;2022-10-17T08:42:33;19.88;;;15.30;;
36745;SDS011;22715;52.182;21.206;2022-10-17T08:47:42;19.33;;;15.18;;
36745;SDS011;22715;52.182;21.206;2022-10-17T08:52:42;23.52;;;15.07;;
36745;SDS011;22715;52.182;21.206;2022-10-17T08:55:13;20.30;;;14.52;;
36745;SDS011;22715;52.182;21.206;2022-10-17T08:57:39;20.13;;;14.65;;
36745;SDS011;22715;52.182;21.206;2022-10-17T09:00:06;21.85;;;15.48;;
36745;SDS011;22715;52.182;21.206;2022-10-17T09:02:39;17.90;;;13.65;;
36745;SDS011;22715;52.182;21.206;2022-10-17T09:05:11;18.83;;;13.57;;
36745;SDS011;22715;52.182;21.206;2022-10-17T09:07:43;17.52;;;13.82;;
36745;SDS011;22715;52.182;21.206;2022-10-17T09:12:58;19.15;;;14.85;;
36745;SDS011;22715;52.182;21.206;2022-10-17T09:15:42;16.25;;;12.90;;
36745;SDS011;22715;52.182;21.206;2022-10-17T09:18:20;19.42;;;12.20;;
36745;SDS011;22715;52.182;21.206;2022-10-17T09:23:16;20.80;;;13.38;;
36745;SDS011;22715;52.182;21.206;2022-10-17T09:25:53;19.60;;;12.82;;
36745;SDS011;22715;52.182;21.206;2022-10-17T09:28:30;17.08;;;12.60;;
36745;SDS011;22715;52.182;21.206;2022-10-17T09:31:11;17.83;;;12.75;;
36745;SDS011;22715;52.182;21.206;2022-10-17T09:33:40;15.73;;;12.23;;
36745;SDS011;22715;52.182;21.206;2022-10-17T09:36:16;17.25;;;13.73;;
36745;SDS011;22715;52.182;21.206;2022-10-17T09:41:54;14.82;;;11.55;;
36745;SDS011;22715;52.182;21.206;2022-10-17T09:49:33;17.70;;;11.25;;
36745;SDS011;22715;52.182;21.206;2022-10-17T09:51:59;18.85;;;13.82;;
36745;SDS011;22715;52.182;21.206;2022-10-17T09:54:26;15.80;;;12.13;;
36745;SDS011;22715;52.182;21.206;2022-10-17T09:57:03;15.45;;;11.68;;
36745;SDS011;22715;52.182;21.206;2022-10-17T09:59:39;16.73;;;11.88;;
36745;SDS011;22715;52.182;21.206;2022-10-17T10:04:33;18.25;;;11.38;;
36745;SDS011;22715;52.182;21.206;2022-10-17T10:07:02;18.55;;;12.00;;
36745;SDS011;22715;52.182;21.206;2022-10-17T10:09:35;13.45;;;10.32;;
36745;SDS011;22715;52.182;21.206;2022-10-17T10:12:06;14.98;;;11.50;;
36745;SDS011;22715;52.182;21.206;2022-10-17T10:14:39;18.20;;;10.63;;
36745;SDS011;22715;52.182;21.206;2022-10-17T10:17:05;16.27;;;11.52;;
36745;SDS011;22715;52.182;21.206;2022-10-17T10:19:37;18.85;;;11.00;;
36745;SDS011;22715;52.182;21.206;2022-10-17T10:22:03;17.33;;;11.30;;
36745;SDS011;22715;52.182;21.206;2022-10-17T10:24:30;15.75;;;10.63;;
36745;SDS011;22715;52.182;21.206;2022-10-17T10:27:15;15.20;;;11.63;;
36745;SDS011;22715;52.182;21.206;2022-10-17T10:29:50;13.55;;;9.77;;
36745;SDS011;22715;52.182;21.206;2022-10-17T10:35:20;16.23;;;10.38;;
36745;SDS011;22715;52.182;21.206;2022-10-17T10:37:47;16.17;;;11.57;;
36745;SDS011;22715;52.182;21.206;2022-10-17T10:40:26;17.58;;;10.95;;
36745;SDS011;22715;52.182;21.206;2022-10-17T10:43:00;14.38;;;11.35;;
36745;SDS011;22715;52.182;21.206;2022-10-17T10:45:39;14.43;;;10.55;;
36745;SDS011;22715;52.182;21.206;2022-10-17T10:48:13;15.85;;;10.00;;
36745;SDS011;22715;52.182;21.206;2022-10-17T10:50:55;12.20;;;9.02;;
36745;SDS011;22715;52.182;21.206;2022-10-17T10:56:13;11.90;;;9.18;;
36745;SDS011;22715;52.182;21.206;2022-10-17T11:06:39;13.35;;;9.63;;
36745;SDS011;22715;52.182;21.206;2022-10-17T11:11:41;14.65;;;10.18;;
36745;SDS011;22715;52.182;21.206;2022-10-17T11:14:11;16.73;;;10.98;;
36745;SDS011;22715;52.182;21.206;2022-10-17T11:16:48;15.85;;;11.30;;
36745;SDS011;22715;52.182;21.206;2022-10-17T11:27:42;17.83;;;11.15;;
36745;SDS011;22715;52.182;21.206;2022-10-17T11:30:11;19.20;;;10.40;;
36745;SDS011;22715;52.182;21.206;2022-10-17T11:35:37;16.30;;;10.57;;
36745;SDS011;22715;52.182;21.206;2022-10-17T11:40:57;12.95;;;10.07;;
36745;SDS011;22715;52.182;21.206;2022-10-17T11:46:24;14.90;;;10.68;;
36745;SDS011;22715;52.182;21.206;2022-10-17T11:49:06;12.50;;;10.30;;
36745;SDS011;22715;52.182;21.206;2022-10-17T11:51:56;20.40;;;13.70;;
36745;SDS011;22715;52.182;21.206;2022-10-17T12:05:27;14.90;;;11.02;;
36745;SDS011;22715;52.182;21.206;2022-10-17T12:07:53;12.52;;;9.63;;
36745;SDS011;22715;52.182;21.206;2022-10-17T12:18:39;13.85;;;10.15;;
36745;SDS011;22715;52.182;21.206;2022-10-17T12:21:04;15.63;;;11.00;;
36745;SDS011;22715;52.182;21.206;2022-10-17T12:23:30;13.15;;;10.55;;
36745;SDS011;22715;52.182;21.206;2022-10-17T12:25:59;13.98;;;9.85;;
36745;SDS011;22715;52.182;21.206;2022-10-17T12:38:50;12.20;;;9.60;;
36745;SDS011;22715;52.182;21.206;2022-10-17T12:46:41;11.70;;;8.90;;
36745;SDS011;22715;52.182;21.206;2022-10-17T12:54:39;13.88;;;9.50;;
36745;SDS011;22715;52.182;21.206;2022-10-17T12:57:20;10.95;;;8.85;;
36745;SDS011;22715;52.182;21.206;2022-10-17T12:59:47;14.27;;;9.68;;
36745;SDS011;22715;52.182;21.206;2022-10-17T13:02:16;15.32;;;11.35;;
36745;SDS011;22715;52.182;21.206;2022-10-17T13:04:42;11.20;;;9.02;;
36745;SDS011;22715;52.182;21.206;2022-10-17T13:07:15;11.45;;;9.68;;
36745;SDS011;22715;52.182;21.206;2022-10-17T13:09:42;12.27;;;9.23;;
36745;SDS011;22715;52.182;21.206;2022-10-17T13:12:11;15.27;;;9.50;;
36745;SDS011;22715;52.182;21.206;2022-10-17T13:14:38;13.25;;;9.25;;
36745;SDS011;22715;52.182;21.206;2022-10-17T13:17:05;11.60;;;9.15;;
36745;SDS011;22715;52.182;21.206;2022-10-17T13:19:41;15.23;;;8.68;;
36745;SDS011;22715;52.182;21.206;2022-10-17T13:22:17;12.10;;;9.52;;
36745;SDS011;22715;52.182;21.206;2022-10-17T13:24:42;15.68;;;9.82;;
36745;SDS011;22715;52.182;21.206;2022-10-17T13:27:27;11.20;;;8.60;;
36745;SDS011;22715;52.182;21.206;2022-10-17T13:29:54;12.50;;;9.45;;
36745;SDS011;22715;52.182;21.206;2022-10-17T13:32:20;13.93;;;9.65;;
36745;SDS011;22715;52.182;21.206;2022-10-17T13:34:46;14.88;;;9.90;;
36745;SDS011;22715;52.182;21.206;2022-10-17T13:37:28;10.95;;;9.27;;
36745;SDS011;22715;52.182;21.206;2022-10-17T13:39:53;12.05;;;9.18;;
36745;SDS011;22715;52.182;21.206;2022-10-17T13:42:26;13.32;;;8.77;;
36745;SDS011;22715;52.182;21.206;2022-10-17T13:44:52;13.90;;;9.25;;
36745;SDS011;22715;52.182;21.206;2022-10-17T13:47:21;15.85;;;10.35;;
36745;SDS011;22715;52.182;21.206;2022-10-17T13:49:47;14.38;;;9.20;;
36745;SDS011;22715;52.182;21.206;2022-10-17T13:52:17;14.38;;;9.45;;
36745;SDS011;22715;52.182;21.206;2022-10-17T13:54:44;14.40;;;10.18;;
36745;SDS011;22715;52.182;21.206;2022-10-17T13:57:26;13.48;;;8.90;;
36745;SDS011;22715;52.182;21.206;2022-10-17T14:00:00;15.95;;;9.15;;
36745;SDS011;22715;52.182;21.206;2022-10-17T14:02:27;12.82;;;9.80;;
36745;SDS011;22715;52.182;21.206;2022-10-17T14:07:27;15.23;;;10.35;;
36745;SDS011;22715;52.182;21.206;2022-10-17T14:09:53;19.77;;;11.05;;
36745;SDS011;22715;52.182;21.206;2022-10-17T14:12:19;15.90;;;10.18;;
36745;SDS011;22715;52.182;21.206;2022-10-17T14:14:48;22.70;;;11.73;;
36745;SDS011;22715;52.182;21.206;2022-10-17T14:17:17;12.27;;;9.88;;
36745;SDS011;22715;52.182;21.206;2022-10-17T14:24:47;14.43;;;8.82;;
36745;SDS011;22715;52.182;21.206;2022-10-17T14:28:13;18.23;;;10.00;;
36745;SDS011;22715;52.182;21.206;2022-10-17T14:30:41;12.68;;;9.82;;
36745;SDS011;22715;52.182;21.206;2022-10-17T14:33:00;16.52;;;10.63;;
36745;SDS011;22715;52.182;21.206;2022-10-17T14:35:27;15.30;;;10.77;;
36745;SDS011;22715;52.182;21.206;2022-10-17T14:40:24;13.25;;;10.00;;
36745;SDS011;22715;52.182;21.206;2022-10-17T14:48:29;11.30;;;8.95;;
36745;SDS011;22715;52.182;21.206;2022-10-17T14:51:15;17.02;;;12.02;;
36745;SDS011;22715;52.182;21.206;2022-10-17T14:56:40;17.58;;;11.02;;
36745;SDS011;22715;52.182;21.206;2022-10-17T14:59:06;15.70;;;10.25;;
36745;SDS011;22715;52.182;21.206;2022-10-17T15:04:03;20.45;;;11.88;;
36745;SDS011;22715;52.182;21.206;2022-10-17T15:06:32;18.58;;;11.00;;
36745;SDS011;22715;52.182;21.206;2022-10-17T15:09:03;19.33;;;12.18;;
36745;SDS011;22715;52.182;21.206;2022-10-17T15:11:37;16.85;;;11.25;;
36745;SDS011;22715;52.182;21.206;2022-10-17T15:14:03;16.50;;;10.65;;
36745;SDS011;22715;52.182;21.206;2022-10-17T15:16:32;18.05;;;12.05;;
36745;SDS011;22715;52.182;21.206;2022-10-17T15:18:58;14.38;;;10.25;;
36745;SDS011;22715;52.182;21.206;2022-10-17T15:23:58;14.20;;;10.68;;
36745;SDS011;22715;52.182;21.206;2022-10-17T15:29:04;19.33;;;13.40;;
36745;SDS011;22715;52.182;21.206;2022-10-17T15:31:35;16.23;;;10.95;;
36745;SDS011;22715;52.182;21.206;2022-10-17T15:34:03;14.27;;;11.88;;
36745;SDS011;22715;52.182;21.206;2022-10-17T15:36:31;19.85;;;12.23;;
36745;SDS011;22715;52.182;21.206;2022-10-17T15:38:59;18.65;;;12.85;;
36745;SDS011;22715;52.182;21.206;2022-10-17T15:41:29;22.15;;;13.43;;
36745;SDS011;22715;52.182;21.206;2022-10-17T15:43:54;18.10;;;12.52;;
36745;SDS011;22715;52.182;21.206;2022-10-17T15:46:21;16.88;;;12.65;;
36745;SDS011;22715;52.182;21.206;2022-10-17T15:48:52;15.40;;;11.27;;
36745;SDS011;22715;52.182;21.206;2022-10-17T15:51:18;16.23;;;11.40;;
36745;SDS011;22715;52.182;21.206;2022-10-17T15:53:52;16.10;;;13.80;;
36745;SDS011;22715;52.182;21.206;2022-10-17T15:56:24;19.48;;;13.98;;
36745;SDS011;22715;52.182;21.206;2022-10-17T15:58:50;17.52;;;13.23;;
36745;SDS011;22715;52.182;21.206;2022-10-17T16:01:18;18.85;;;14.20;;
36745;SDS011;22715;52.182;21.206;2022-10-17T16:03:47;17.92;;;15.00;;
36745;SDS011;22715;52.182;21.206;2022-10-17T16:06:15;22.67;;;13.20;;
36745;SDS011;22715;52.182;21.206;2022-10-17T16:08:40;18.25;;;14.15;;
36745;SDS011;22715;52.182;21.206;2022-10-17T16:11:05;19.17;;;12.43;;
36745;SDS011;22715;52.182;21.206;2022-10-17T16:13:33;17.27;;;13.15;;
36745;SDS011;22715;52.182;21.206;2022-10-17T16:15:59;21.42;;;13.43;;
36745;SDS011;22715;52.182;21.206;2022-10-17T16:18:24;15.38;;;12.93;;
36745;SDS011;22715;52.182;21.206;2022-10-17T16:20:54;18.35;;;13.23;;
36745;SDS011;22715;52.182;21.206;2022-10-17T16:23:20;18.08;;;13.50;;
36745;SDS011;22715;52.182;21.206;2022-10-17T16:25:45;21.25;;;14.43;;
36745;SDS011;22715;52.182;21.206;2022-10-17T16:28:11;17.23;;;13.63;;
36745;SDS011;22715;52.182;21.206;2022-10-17T16:30:38;22.45;;;14.35;;
36745;SDS011;22715;52.182;21.206;2022-10-17T16:33:06;20.83;;;14.20;;
36745;SDS011;22715;52.182;21.206;2022-10-17T16:35:31;21.73;;;14.50;;
36745;SDS011;22715;52.182;21.206;2022-10-17T16:37:57;18.20;;;13.45;;
36745;SDS011;22715;52.182;21.206;2022-10-17T16:40:23;17.50;;;12.77;;
36745;SDS011;22715;52.182;21.206;2022-10-17T16:42:49;18.75;;;14.32;;
36745;SDS011;22715;52.182;21.206;2022-10-17T16:45:16;19.00;;;14.23;;
36745;SDS011;22715;52.182;21.206;2022-10-17T16:47:42;18.15;;;13.15;;
36745;SDS011;22715;52.182;21.206;2022-10-17T16:52:40;19.95;;;12.55;;
36745;SDS011;22715;52.182;21.206;2022-10-17T16:55:06;28.42;;;14.48;;